Home > Products > Valid Products > TAF

000
FTUS43 KDMX 281724
TAFFOD
TAF
KFOD 281724Z 2818/2918 34006KT P6SM FEW025 BKN040
     FM290000 32003KT P6SM SKC=



000
FTUS43 KDMX 281724
TAFALO
TAF
KALO 281724Z 2818/2918 33010KT P6SM FEW030 BKN050
     FM290000 31004KT P6SM SKC=



000
FTUS43 KDMX 281724
TAFMCW
TAF
KMCW 281724Z 2818/2918 33009KT P6SM FEW025 BKN045
     FM290000 31006KT P6SM SKC=



000
FTUS43 KDMX 281724
TAFOTM
TAF
KOTM 281724Z 2818/2918 35008KT P6SM SCT050
     FM282300 32005KT P6SM SKC=



000
FTUS43 KDMX 281724
TAFDSM
TAF
KDSM 281724Z 2818/2918 34006KT P6SM FEW035 BKN060
     FM290000 32004KT P6SM FEW040=



000
FTUS43 KDMX 281724
TAFALO
TAF
KALO 281724Z 2818/2918 33010KT P6SM FEW030 BKN050
     FM290000 31004KT P6SM SKC=



000
FTUS43 KDMX 281724
TAFFOD
TAF
KFOD 281724Z 2818/2918 34006KT P6SM FEW025 BKN040
     FM290000 32003KT P6SM SKC=



000
FTUS43 KDMX 281724
TAFOTM
TAF
KOTM 281724Z 2818/2918 35008KT P6SM SCT050
     FM282300 32005KT P6SM SKC=



000
FTUS43 KDMX 281724
TAFMCW
TAF
KMCW 281724Z 2818/2918 33009KT P6SM FEW025 BKN045
     FM290000 31006KT P6SM SKC=



000
FTUS43 KDMX 281724
TAFDSM
TAF
KDSM 281724Z 2818/2918 34006KT P6SM FEW035 BKN060
     FM290000 32004KT P6SM FEW040=



000
FTUS43 KDMX 281127
TAFALO
TAF
KALO 281127Z 2812/2912 33008KT P6SM FEW030 BKN060
     FM282300 31005KT P6SM FEW040=



000
FTUS43 KDMX 281127
TAFFOD
TAF
KFOD 281127Z 2812/2912 33007KT P6SM FEW025 BKN050
      TEMPO 2812/2813 BKN009
     FM282300 32003KT P6SM FEW040=



000
FTUS43 KDMX 281127
TAFMCW
TAF
KMCW 281127Z 2812/2912 33008KT P6SM FEW025 BKN050
     FM282300 31006KT P6SM FEW040=



000
FTUS43 KDMX 281127
TAFDSM
TAF
KDSM 281127Z 2812/2912 34008KT P6SM FEW025 SCT050
     FM282300 32005KT P6SM FEW040=



000
FTUS43 KDMX 281127
TAFOTM
TAF
KOTM 281127Z 2812/2912 33009KT P6SM FEW025 SCT050
     FM282300 32006KT P6SM FEW040=



000
FTUS43 KDMX 281127
TAFDSM
TAF
KDSM 281127Z 2812/2912 34008KT P6SM FEW025 SCT050
     FM282300 32005KT P6SM FEW040=



000
FTUS43 KDMX 281127
TAFMCW
TAF
KMCW 281127Z 2812/2912 33008KT P6SM FEW025 BKN050
     FM282300 31006KT P6SM FEW040=



000
FTUS43 KDMX 281127
TAFALO
TAF
KALO 281127Z 2812/2912 33008KT P6SM FEW030 BKN060
     FM282300 31005KT P6SM FEW040=



000
FTUS43 KDMX 281127
TAFFOD
TAF
KFOD 281127Z 2812/2912 33007KT P6SM FEW025 BKN050
      TEMPO 2812/2813 BKN009
     FM282300 32003KT P6SM FEW040=



000
FTUS43 KDMX 281127
TAFOTM
TAF
KOTM 281127Z 2812/2912 33009KT P6SM FEW025 SCT050
     FM282300 32006KT P6SM FEW040=



000
FTUS43 KDMX 280520
TAFALO
TAF
KALO 280520Z 2806/2906 32007KT P6SM SCT040
     FM281300 33010KT P6SM BKN040
     FM281700 31009KT P6SM BKN035
      TEMPO 2819/2822 -SHRA
     FM290100 28005KT P6SM FEW040=



000
FTUS43 KDMX 280520
TAFDSM
TAF
KDSM 280520Z 2806/2906 33007KT P6SM SKC
     FM281900 36009KT P6SM VCSH BKN050
     FM290100 31005KT P6SM FEW050=



000
FTUS43 KDMX 280520
TAFFOD
TAF
KFOD 280520Z 2806/2906 32006KT P6SM FEW050
     FM280900 36003KT P6SM BKN040
     FM281700 32006KT P6SM VCSH BKN035
     FM290200 VRB02KT P6SM FEW040=



000
FTUS43 KDMX 280520
TAFMCW
TAF
KMCW 280520Z 2806/2906 34009KT P6SM SCT030
     FM280900 34006KT P6SM BKN040
     FM281600 32011KT P6SM BKN030
      TEMPO 2818/2821 -SHRA
     FM290300 35005KT P6SM FEW040=



000
FTUS43 KDMX 280520
TAFOTM
TAF
KOTM 280520Z 2806/2906 30007KT P6SM SKC
     FM281300 36009KT P6SM SCT050
     FM281900 34009KT P6SM BKN040
     FM290100 31005KT P6SM FEW040=



000
FTUS43 KDMX 280520
TAFDSM
TAF
KDSM 280520Z 2806/2906 33007KT P6SM SKC
     FM281900 36009KT P6SM VCSH BKN050
     FM290100 31005KT P6SM FEW050=



000
FTUS43 KDMX 280520
TAFOTM
TAF
KOTM 280520Z 2806/2906 30007KT P6SM SKC
     FM281300 36009KT P6SM SCT050
     FM281900 34009KT P6SM BKN040
     FM290100 31005KT P6SM FEW040=



000
FTUS43 KDMX 280520
TAFMCW
TAF
KMCW 280520Z 2806/2906 34009KT P6SM SCT030
     FM280900 34006KT P6SM BKN040
     FM281600 32011KT P6SM BKN030
      TEMPO 2818/2821 -SHRA
     FM290300 35005KT P6SM FEW040=



000
FTUS43 KDMX 280520
TAFFOD
TAF
KFOD 280520Z 2806/2906 32006KT P6SM FEW050
     FM280900 36003KT P6SM BKN040
     FM281700 32006KT P6SM VCSH BKN035
     FM290200 VRB02KT P6SM FEW040=



000
FTUS43 KDMX 280520
TAFALO
TAF
KALO 280520Z 2806/2906 32007KT P6SM SCT040
     FM281300 33010KT P6SM BKN040
     FM281700 31009KT P6SM BKN035
      TEMPO 2819/2822 -SHRA
     FM290100 28005KT P6SM FEW040=



000
FTUS43 KDMX 280301 AAA
TAFALO
TAF AMD
KALO 280301Z 2803/2824 31012G22KT P6SM BKN040
      TEMPO 2803/2804 -SHRA OVC060
     FM280400 32007KT P6SM SCT040
     FM281300 33010KT P6SM BKN040=



000
FTUS43 KDMX 280301 AAA
TAFALO
TAF AMD
KALO 280301Z 2803/2824 31012G22KT P6SM BKN040
      TEMPO 2803/2804 -SHRA OVC060
     FM280400 32007KT P6SM SCT040
     FM281300 33010KT P6SM BKN040=



000
FTUS43 KDMX 280020 AAA
TAFDSM
TAF AMD
KDSM 280020Z 2800/2824 34015G25KT P6SM SCT050
     FM280200 33005KT P6SM SKC
     FM281900 36009KT P6SM BKN050=



000
FTUS43 KDMX 280020 AAA
TAFDSM
TAF AMD
KDSM 280020Z 2800/2824 34015G25KT P6SM SCT050
     FM280200 33005KT P6SM SKC
     FM281900 36009KT P6SM BKN050=



000
FTUS43 KDMX 280019 AAA
TAFMCW
TAF AMD
KMCW 280019Z 2800/2824 30015KT P6SM BKN040
     FM280200 34009KT P6SM SCT030
     FM280900 34006KT P6SM BKN030
     FM281600 32011KT P6SM BKN050=



000
FTUS43 KDMX 280019 AAA
TAFMCW
TAF AMD
KMCW 280019Z 2800/2824 30015KT P6SM BKN040
     FM280200 34009KT P6SM SCT030
     FM280900 34006KT P6SM BKN030
     FM281600 32011KT P6SM BKN050=



000
FTUS43 KDMX 272321
TAFMCW
TAF
KMCW 272321Z 2800/2824 30015G25KT P6SM VCSH BKN040
     FM280200 34009KT P6SM SCT030
     FM280900 34006KT P6SM BKN030
     FM281600 32011KT P6SM BKN050=



000
FTUS43 KDMX 272321
TAFMCW
TAF
KMCW 272321Z 2800/2824 30015G25KT P6SM VCSH BKN040
     FM280200 34009KT P6SM SCT030
     FM280900 34006KT P6SM BKN030
     FM281600 32011KT P6SM BKN050=



000
FTUS43 KDMX 272320
TAFMCW
TAF
KMCW 272320Z 2800/2824 33014G22KT P6SM VCSH BKN040
     FM280200 34009KT P6SM SCT030
     FM280900 34006KT P6SM BKN030
     FM281600 32011KT P6SM BKN050=



000
FTUS43 KDMX 272320
TAFDSM
TAF
KDSM 272320Z 2800/2824 34011G18KT P6SM SCT050
     FM280200 33005KT P6SM SKC
     FM281900 36009KT P6SM BKN050=



000
FTUS43 KDMX 272320
TAFMCW
TAF
KMCW 272320Z 2800/2824 33014G22KT P6SM VCSH BKN040
     FM280200 34009KT P6SM SCT030
     FM280900 34006KT P6SM BKN030
     FM281600 32011KT P6SM BKN050=



000
FTUS43 KDMX 272320
TAFOTM
TAF
KOTM 272320Z 2800/2824 32012G19KT P6SM SCT045
     FM280200 33006KT P6SM SKC
     FM282000 34010KT P6SM BKN050=



000
FTUS43 KDMX 272320
TAFOTM
TAF
KOTM 272320Z 2800/2824 32012G19KT P6SM SCT045
     FM280200 33006KT P6SM SKC
     FM282000 34010KT P6SM BKN050=



000
FTUS43 KDMX 272320
TAFFOD
TAF
KFOD 272320Z 2800/2824 32011G19KT P6SM BKN045
     FM280100 35005KT P6SM SCT040
     FM281500 33008KT P6SM SCT050=



000
FTUS43 KDMX 272320
TAFDSM
TAF
KDSM 272320Z 2800/2824 34011G18KT P6SM SCT050
     FM280200 33005KT P6SM SKC
     FM281900 36009KT P6SM BKN050=



000
FTUS43 KDMX 272320
TAFALO
TAF
KALO 272320Z 2800/2824 31012G22KT P6SM VCSH BKN040
     FM280100 32007KT P6SM SCT040
     FM281300 33010KT P6SM BKN040=



000
FTUS43 KDMX 272320
TAFALO
TAF
KALO 272320Z 2800/2824 31012G22KT P6SM VCSH BKN040
     FM280100 32007KT P6SM SCT040
     FM281300 33010KT P6SM BKN040=



000
FTUS43 KDMX 272320
TAFFOD
TAF
KFOD 272320Z 2800/2824 32011G19KT P6SM BKN045
     FM280100 35005KT P6SM SCT040
     FM281500 33008KT P6SM SCT050=



000
FTUS43 KDMX 271736
TAFDSM
TAF
KDSM 271736Z 2718/2818 31023G32KT P6SM BKN050
     FM272300 32011G18KT P6SM SCT050
     FM280200 34008KT P6SM SKC=



000
FTUS43 KDMX 271736
TAFMCW
TAF
KMCW 271736Z 2718/2818 33020G30KT P6SM VCSH BKN035
     FM280100 34009KT P6SM SCT030
     FM280900 34011KT P6SM BKN030=



000
FTUS43 KDMX 271736
TAFOTM
TAF
KOTM 271736Z 2718/2818 31020G29KT P6SM SCT040
     FM280000 32012G19KT P6SM SCT045
     FM280200 33008KT P6SM SKC=



000
FTUS43 KDMX 271736
TAFFOD
TAF
KFOD 271736Z 2718/2818 32013G19KT P6SM BKN045
     FM280000 35005KT P6SM SCT040
     FM281500 33008KT P6SM SCT050=



000
FTUS43 KDMX 271736
TAFALO
TAF
KALO 271736Z 2718/2818 31017G26KT P6SM VCSH BKN040
     FM280100 32007KT P6SM SCT040
     FM281300 33010KT P6SM BKN035=



000
FTUS43 KDMX 271736
TAFOTM
TAF
KOTM 271736Z 2718/2818 31020G29KT P6SM SCT040
     FM280000 32012G19KT P6SM SCT045
     FM280200 33008KT P6SM SKC=



000
FTUS43 KDMX 271736
TAFFOD
TAF
KFOD 271736Z 2718/2818 32013G19KT P6SM BKN045
     FM280000 35005KT P6SM SCT040
     FM281500 33008KT P6SM SCT050=



000
FTUS43 KDMX 271736
TAFDSM
TAF
KDSM 271736Z 2718/2818 31023G32KT P6SM BKN050
     FM272300 32011G18KT P6SM SCT050
     FM280200 34008KT P6SM SKC=



000
FTUS43 KDMX 271736
TAFALO
TAF
KALO 271736Z 2718/2818 31017G26KT P6SM VCSH BKN040
     FM280100 32007KT P6SM SCT040
     FM281300 33010KT P6SM BKN035=



000
FTUS43 KDMX 271736
TAFMCW
TAF
KMCW 271736Z 2718/2818 33020G30KT P6SM VCSH BKN035
     FM280100 34009KT P6SM SCT030
     FM280900 34011KT P6SM BKN030=



000
FTUS43 KDMX 271638 AAA
TAFALO
TAF AMD
KALO 271638Z 2717/2812 31018G28KT P6SM VCSH BKN035
     FM280200 33011KT P6SM SCT040
     FM280700 32004KT P6SM SKC=



000
FTUS43 KDMX 271638 AAA
TAFALO
TAF AMD
KALO 271638Z 2717/2812 31018G28KT P6SM VCSH BKN035
     FM280200 33011KT P6SM SCT040
     FM280700 32004KT P6SM SKC=



000
FTUS43 KDMX 271637 AAA
TAFMCW
TAF AMD
KMCW 271637Z 2717/2812 33022G32KT P6SM VCSH BKN035
     FM280200 34014KT P6SM BKN035
     FM280500 34005KT P6SM SCT035=



000
FTUS43 KDMX 271637 AAA
TAFMCW
TAF AMD
KMCW 271637Z 2717/2812 33022G32KT P6SM VCSH BKN035
     FM280200 34014KT P6SM BKN035
     FM280500 34005KT P6SM SCT035=



000
FTUS43 KDMX 271208 AAB
TAFOTM
TAF AMD
KOTM 271208Z 2712/2812 30007KT 1SM BR OVC002
      TEMPO 2712/2714 3SM BR SCT002
     FM271400 31007KT P6SM SCT002
     FM271600 31019G28KT P6SM SCT040
     FM272200 32015G22KT P6SM BKN050
     FM280200 33008KT P6SM SKC=



000
FTUS43 KDMX 271208 AAB
TAFOTM
TAF AMD
KOTM 271208Z 2712/2812 30007KT 1SM BR OVC002
      TEMPO 2712/2714 3SM BR SCT002
     FM271400 31007KT P6SM SCT002
     FM271600 31019G28KT P6SM SCT040
     FM272200 32015G22KT P6SM BKN050
     FM280200 33008KT P6SM SKC=



000
FTUS43 KDMX 271138 AAA
TAFOTM
TAF AMD
KOTM 271138Z 2712/2812 30007KT 1/2SM FG VV002
      TEMPO 2712/2714 3SM BR SCT002
     FM271400 31007KT P6SM SCT002
     FM271600 31019G28KT P6SM SCT040
     FM272200 32015G22KT P6SM BKN050
     FM280200 33008KT P6SM SKC=



000
FTUS43 KDMX 271138 AAA
TAFOTM
TAF AMD
KOTM 271138Z 2712/2812 30007KT 1/2SM FG VV002
      TEMPO 2712/2714 3SM BR SCT002
     FM271400 31007KT P6SM SCT002
     FM271600 31019G28KT P6SM SCT040
     FM272200 32015G22KT P6SM BKN050
     FM280200 33008KT P6SM SKC=



000
FTUS43 KDMX 271122
TAFDSM
TAF
KDSM 271122Z 2712/2812 32007KT P6SM SKC
     FM271500 32019G30KT P6SM SCT050
     FM272300 31013G22KT P6SM BKN050
     FM280300 34008KT P6SM SKC=



000
FTUS43 KDMX 271122
TAFFOD
TAF
KFOD 271122Z 2712/2812 26004KT P6SM SKC
     FM271400 32012KT P6SM SCT050
     FM271500 32013G24KT P6SM BKN050
     FM272300 33010KT P6SM SCT050
     FM280500 36003KT P6SM SCT035=



000
FTUS43 KDMX 271122
TAFALO
TAF
KALO 271122Z 2712/2812 29008G13KT P6SM SKC
     FM271500 32017G24KT P6SM BKN025
     FM271900 31020G30KT P6SM VCSH OVC030
     FM280200 33011KT P6SM SCT040
     FM280700 32004KT P6SM SKC=



000
FTUS43 KDMX 271122
TAFMCW
TAF
KMCW 271122Z 2712/2812 29010KT P6SM SCT025
     FM271500 31020G30KT P6SM BKN025
     FM271700 33022G32KT P6SM VCSH BKN030
     FM280200 34014KT P6SM BKN035
     FM280500 34005KT P6SM SCT035=



000
FTUS43 KDMX 271122
TAFALO
TAF
KALO 271122Z 2712/2812 29008G13KT P6SM SKC
     FM271500 32017G24KT P6SM BKN025
     FM271900 31020G30KT P6SM VCSH OVC030
     FM280200 33011KT P6SM SCT040
     FM280700 32004KT P6SM SKC=



000
FTUS43 KDMX 271122
TAFMCW
TAF
KMCW 271122Z 2712/2812 29010KT P6SM SCT025
     FM271500 31020G30KT P6SM BKN025
     FM271700 33022G32KT P6SM VCSH BKN030
     FM280200 34014KT P6SM BKN035
     FM280500 34005KT P6SM SCT035=



000
FTUS43 KDMX 271122
TAFOTM
TAF
KOTM 271122Z 2712/2812 30007KT 1/4SM FG VV002
      TEMPO 2712/2714 3SM BR SCT002
     FM271400 31007KT P6SM SCT002
     FM271600 31019G28KT P6SM SCT040
     FM272200 32015G22KT P6SM BKN050
     FM280200 33008KT P6SM SKC=



000
FTUS43 KDMX 271122
TAFFOD
TAF
KFOD 271122Z 2712/2812 26004KT P6SM SKC
     FM271400 32012KT P6SM SCT050
     FM271500 32013G24KT P6SM BKN050
     FM272300 33010KT P6SM SCT050
     FM280500 36003KT P6SM SCT035=



000
FTUS43 KDMX 271122
TAFDSM
TAF
KDSM 271122Z 2712/2812 32007KT P6SM SKC
     FM271500 32019G30KT P6SM SCT050
     FM272300 31013G22KT P6SM BKN050
     FM280300 34008KT P6SM SKC=



000
FTUS43 KDMX 271108 AAE
TAFOTM
TAF AMD
KOTM 271108Z 2711/2806 30004KT 3/4SM BR VV002
     FM271400 30007KT 6SM BR SCT002
     FM271600 31017G25KT P6SM SCT040
     FM272300 32013KT P6SM FEW040
     FM280200 33008KT P6SM SKC=



000
FTUS43 KDMX 271108 AAE
TAFOTM
TAF AMD
KOTM 271108Z 2711/2806 30004KT 3/4SM BR VV002
     FM271400 30007KT 6SM BR SCT002
     FM271600 31017G25KT P6SM SCT040
     FM272300 32013KT P6SM FEW040
     FM280200 33008KT P6SM SKC=



000
FTUS43 KDMX 270859 AAD
TAFOTM
TAF AMD
KOTM 270859Z 2709/2806 32004KT 5SM BR SCT025 OVC060
     FM271000 30007KT 6SM BR SCT002
     FM271600 31017G25KT P6SM SCT040
     FM272300 32013KT P6SM FEW040
     FM280200 33008KT P6SM SKC=



000
FTUS43 KDMX 270859 AAD
TAFOTM
TAF AMD
KOTM 270859Z 2709/2806 32004KT 5SM BR SCT025 OVC060
     FM271000 30007KT 6SM BR SCT002
     FM271600 31017G25KT P6SM SCT040
     FM272300 32013KT P6SM FEW040
     FM280200 33008KT P6SM SKC=



000
FTUS43 KDMX 270801 AAA
TAFALO
TAF AMD
KALO 270801Z 2708/2806 28008G13KT P6SM FEW070
     FM271500 32017G24KT P6SM BKN050
     FM271900 31020G30KT P6SM VCSH OVC030
     FM280200 33011KT P6SM SCT040=



000
FTUS43 KDMX 270801 AAA
TAFALO
TAF AMD
KALO 270801Z 2708/2806 28008G13KT P6SM FEW070
     FM271500 32017G24KT P6SM BKN050
     FM271900 31020G30KT P6SM VCSH OVC030
     FM280200 33011KT P6SM SCT040=



000
FTUS43 KDMX 270741 AAC
TAFOTM
TAF AMD
KOTM 270741Z 2708/2806 32004KT 1/2SM FG SCT025 OVC060
      TEMPO 2708/2710 5SM BR BKN012
     FM271000 30007KT 5SM BR SCT002
     FM271600 31017G25KT P6SM SCT040
     FM272300 32013KT P6SM FEW040
     FM280200 33008KT P6SM SKC=



000
FTUS43 KDMX 270741 AAC
TAFOTM
TAF AMD
KOTM 270741Z 2708/2806 32004KT 1/2SM FG SCT025 OVC060
      TEMPO 2708/2710 5SM BR BKN012
     FM271000 30007KT 5SM BR SCT002
     FM271600 31017G25KT P6SM SCT040
     FM272300 32013KT P6SM FEW040
     FM280200 33008KT P6SM SKC=



000
FTUS43 KDMX 270732 AAB
TAFOTM
TAF AMD
KOTM 270732Z 2708/2806 32004KT 1 1/2SM BR SCT025 OVC060
      TEMPO 2708/2710 5SM BR BKN012
     FM271000 30007KT 5SM BR SCT002
     FM271600 31017G25KT P6SM SCT040
     FM272300 32013KT P6SM FEW040
     FM280200 33008KT P6SM SKC=



000
FTUS43 KDMX 270732 AAB
TAFOTM
TAF AMD
KOTM 270732Z 2708/2806 32004KT 1 1/2SM BR SCT025 OVC060
      TEMPO 2708/2710 5SM BR BKN012
     FM271000 30007KT 5SM BR SCT002
     FM271600 31017G25KT P6SM SCT040
     FM272300 32013KT P6SM FEW040
     FM280200 33008KT P6SM SKC=



000
FTUS43 KDMX 270721 AAA
TAFMCW
TAF AMD
KMCW 270721Z 2707/2806 28011G18KT P6SM FEW100
     FM270900 30011KT P6SM SKC
     FM271500 31020G30KT P6SM BKN050
     FM271900 33022G32KT P6SM VCSH BKN030
     FM280200 34008KT P6SM BKN100=



000
FTUS43 KDMX 270721 AAA
TAFMCW
TAF AMD
KMCW 270721Z 2707/2806 28011G18KT P6SM FEW100
     FM270900 30011KT P6SM SKC
     FM271500 31020G30KT P6SM BKN050
     FM271900 33022G32KT P6SM VCSH BKN030
     FM280200 34008KT P6SM BKN100=



000
FTUS43 KDMX 270640 AAA
TAFOTM
TAF AMD
KOTM 270640Z 2707/2806 VRB04KT P6SM SCT025 OVC060
      TEMPO 2707/2709 5SM BR BKN012
     FM271000 30007KT 5SM BR SCT002
     FM271600 31017G25KT P6SM SCT040
     FM272300 32013KT P6SM FEW040
     FM280200 33008KT P6SM SKC=



000
FTUS43 KDMX 270640 AAA
TAFOTM
TAF AMD
KOTM 270640Z 2707/2806 VRB04KT P6SM SCT025 OVC060
      TEMPO 2707/2709 5SM BR BKN012
     FM271000 30007KT 5SM BR SCT002
     FM271600 31017G25KT P6SM SCT040
     FM272300 32013KT P6SM FEW040
     FM280200 33008KT P6SM SKC=



000
FTUS43 KDMX 270638 AAA
TAFFOD
TAF AMD
KFOD 270638Z 2707/2806 VRB02KT P6SM SKC
     FM271400 32013G20KT P6SM BKN050
     FM272300 33010KT P6SM SCT050
     FM280500 36003KT P6SM SCT030=



000
FTUS43 KDMX 270638 AAA
TAFFOD
TAF AMD
KFOD 270638Z 2707/2806 VRB02KT P6SM SKC
     FM271400 32013G20KT P6SM BKN050
     FM272300 33010KT P6SM SCT050
     FM280500 36003KT P6SM SCT030=



000
FTUS43 KDMX 270520
TAFALO
TAF
KALO 270520Z 2706/2806 VRB02KT P6SM SKC
     FM270800 30007KT 5SM BR SKC
      TEMPO 2708/2710 3/4SM BR BKN002
     FM271500 32017G24KT P6SM BKN050
     FM271900 31020G30KT P6SM VCSH OVC030
     FM280200 33011KT P6SM SCT040=



000
FTUS43 KDMX 270520
TAFFOD
TAF
KFOD 270520Z 2706/2806 VRB02KT 5SM BR SKC
      TEMPO 2706/2708 3/4SM BR BKN002
     FM271400 32013G20KT P6SM BKN050
     FM272300 33010KT P6SM SCT050
     FM280500 36003KT P6SM SCT030=



000
FTUS43 KDMX 270520
TAFFOD
TAF
KFOD 270520Z 2706/2806 VRB02KT 5SM BR SKC
      TEMPO 2706/2708 3/4SM BR BKN002
     FM271400 32013G20KT P6SM BKN050
     FM272300 33010KT P6SM SCT050
     FM280500 36003KT P6SM SCT030=



000
FTUS43 KDMX 270520
TAFDSM
TAF
KDSM 270520Z 2706/2806 VRB05KT P6SM SKC
     FM271500 32019G28KT P6SM SCT040
     FM272300 31012KT P6SM FEW040
     FM280400 34008KT P6SM SKC=



000
FTUS43 KDMX 270520
TAFMCW
TAF
KMCW 270520Z 2706/2806 VRB03KT P6SM FEW100
     FM270900 30011KT P6SM SKC
     FM271500 31020G30KT P6SM BKN050
     FM271900 33022G32KT P6SM VCSH BKN030
     FM280200 34008KT P6SM BKN100=



000
FTUS43 KDMX 270520
TAFOTM
TAF
KOTM 270520Z 2706/2806 VRB04KT P6SM SCT020 OVC040
      TEMPO 2706/2709 BKN015
     FM271000 30007KT 5SM BR SCT002
     FM271600 31017G25KT P6SM SCT040
     FM272300 32013KT P6SM FEW040
     FM280200 33008KT P6SM SKC=



000
FTUS43 KDMX 270520
TAFALO
TAF
KALO 270520Z 2706/2806 VRB02KT P6SM SKC
     FM270800 30007KT 5SM BR SKC
      TEMPO 2708/2710 3/4SM BR BKN002
     FM271500 32017G24KT P6SM BKN050
     FM271900 31020G30KT P6SM VCSH OVC030
     FM280200 33011KT P6SM SCT040=



000
FTUS43 KDMX 270520
TAFOTM
TAF
KOTM 270520Z 2706/2806 VRB04KT P6SM SCT020 OVC040
      TEMPO 2706/2709 BKN015
     FM271000 30007KT 5SM BR SCT002
     FM271600 31017G25KT P6SM SCT040
     FM272300 32013KT P6SM FEW040
     FM280200 33008KT P6SM SKC=



000
FTUS43 KDMX 270520
TAFDSM
TAF
KDSM 270520Z 2706/2806 VRB05KT P6SM SKC
     FM271500 32019G28KT P6SM SCT040
     FM272300 31012KT P6SM FEW040
     FM280400 34008KT P6SM SKC=



000
FTUS43 KDMX 270520
TAFMCW
TAF
KMCW 270520Z 2706/2806 VRB03KT P6SM FEW100
     FM270900 30011KT P6SM SKC
     FM271500 31020G30KT P6SM BKN050
     FM271900 33022G32KT P6SM VCSH BKN030
     FM280200 34008KT P6SM BKN100=



000
FTUS43 KDMX 270437 AAB
TAFOTM
TAF AMD
KOTM 270437Z 2705/2724 VRB05KT P6SM SCT020 OVC040
      TEMPO 2705/2708 BKN015
     FM271000 30007KT P6SM SKC
     FM271600 31017G25KT P6SM SCT040
     FM272300 32013KT P6SM FEW040=



000
FTUS43 KDMX 270436 AAA
TAFFOD
TAF AMD
KFOD 270436Z 2705/2724 03002KT 5SM BR FEW120
      TEMPO 2705/2708 3/4SM BR BKN002
     FM271400 32013G20KT P6SM BKN050
     FM272300 35010KT P6SM SCT050=



000
FTUS43 KDMX 270436 AAA
TAFFOD
TAF AMD
KFOD 270436Z 2705/2724 03002KT 5SM BR FEW120
      TEMPO 2705/2708 3/4SM BR BKN002
     FM271400 32013G20KT P6SM BKN050
     FM272300 35010KT P6SM SCT050=



000
FTUS43 KDMX 270332 AAA
TAFOTM
TAF AMD
KOTM 270332Z 2704/2724 VRB05KT P6SM SCT020 OVC040
     FM271000 30007KT P6SM SKC
     FM271600 31017G25KT P6SM SCT040
     FM272300 32013KT P6SM FEW040=



000
FTUS43 KDMX 262334
TAFMCW
TAF
KMCW 262334Z 2700/2724 VRB03KT P6SM FEW100
     FM270900 30011KT P6SM SKC
     FM271500 31022G32KT P6SM BKN050=



000
FTUS43 KDMX 262334
TAFFOD
TAF
KFOD 262334Z 2700/2724 03002KT P6SM FEW120
     FM271400 32013G20KT P6SM BKN050
     FM272300 35010KT P6SM SCT050=



000
FTUS43 KDMX 262334
TAFOTM
TAF
KOTM 262334Z 2700/2724 VRB05KT P6SM SCT020 SCT035
      TEMPO 2700/2702 5SM -TSRA BKN020CB
     FM271000 30007KT P6SM SKC
     FM271600 31017G25KT P6SM SCT040
     FM272300 32013KT P6SM FEW040=



000
FTUS43 KDMX 262334
TAFALO
TAF
KALO 262334Z 2700/2724 VRB04KT P6SM SCT100
     FM270800 30007KT P6SM SKC
     FM271500 32020G28KT P6SM BKN050=



000
FTUS43 KDMX 262334
TAFDSM
TAF
KDSM 262334Z 2700/2724 15009KT P6SM SCT020
      TEMPO 2700/2702 BKN020
     FM270300 33006KT P6SM SKC
     FM271500 32019G28KT P6SM SCT040
     FM272300 31012KT P6SM FEW040=



000
FTUS43 KDMX 262334
TAFFOD
TAF
KFOD 262334Z 2700/2724 03002KT P6SM FEW120
     FM271400 32013G20KT P6SM BKN050
     FM272300 35010KT P6SM SCT050=



000
FTUS43 KDMX 262334
TAFDSM
TAF
KDSM 262334Z 2700/2724 15009KT P6SM SCT020
      TEMPO 2700/2702 BKN020
     FM270300 33006KT P6SM SKC
     FM271500 32019G28KT P6SM SCT040
     FM272300 31012KT P6SM FEW040=



000
FTUS43 KDMX 262334
TAFALO
TAF
KALO 262334Z 2700/2724 VRB04KT P6SM SCT100
     FM270800 30007KT P6SM SKC
     FM271500 32020G28KT P6SM BKN050=



000
FTUS43 KDMX 262334
TAFMCW
TAF
KMCW 262334Z 2700/2724 VRB03KT P6SM FEW100
     FM270900 30011KT P6SM SKC
     FM271500 31022G32KT P6SM BKN050=



000
FTUS43 KDMX 262334
TAFOTM
TAF
KOTM 262334Z 2700/2724 VRB05KT P6SM SCT020 SCT035
      TEMPO 2700/2702 5SM -TSRA BKN020CB
     FM271000 30007KT P6SM SKC
     FM271600 31017G25KT P6SM SCT040
     FM272300 32013KT P6SM FEW040=



000
FTUS43 KDMX 262028 AAA
TAFALO
TAF AMD
KALO 262028Z 2620/2718 30006KT P6SM SCT025 BKN150
     FM262300 VRB04KT P6SM SCT100 BKN200
     FM270400 30007KT P6SM SKC
     FM271500 32015G24KT P6SM FEW040=



000
FTUS43 KDMX 262028 AAA
TAFALO
TAF AMD
KALO 262028Z 2620/2718 30006KT P6SM SCT025 BKN150
     FM262300 VRB04KT P6SM SCT100 BKN200
     FM270400 30007KT P6SM SKC
     FM271500 32015G24KT P6SM FEW040=



000
FTUS43 KDMX 262026 AAB
TAFFOD
TAF AMD
KFOD 262026Z 2620/2718 VRB04KT P6SM VCSH FEW020 BKN150
     FM270000 30007KT P6SM SKC
     FM271500 32013G20KT P6SM FEW040=



000
FTUS43 KDMX 262026 AAB
TAFFOD
TAF AMD
KFOD 262026Z 2620/2718 VRB04KT P6SM VCSH FEW020 BKN150
     FM270000 30007KT P6SM SKC
     FM271500 32013G20KT P6SM FEW040=



000
FTUS43 KDMX 261927 AAA
TAFOTM
TAF AMD
KOTM 261927Z 2619/2718 20005KT P6SM FEW020 BKN150
     FM262100 07006KT P6SM VCTS SCT015CB BKN080
     FM270200 VRB05KT P6SM SCT030
     FM271000 30007KT P6SM SKC=



000
FTUS43 KDMX 261927 AAA
TAFOTM
TAF AMD
KOTM 261927Z 2619/2718 20005KT P6SM FEW020 BKN150
     FM262100 07006KT P6SM VCTS SCT015CB BKN080
     FM270200 VRB05KT P6SM SCT030
     FM271000 30007KT P6SM SKC=



000
FTUS43 KDMX 261924 AAA
TAFDSM
TAF AMD
KDSM 261924Z 2619/2718 VRB04KT P6SM FEW030 SCT100 BKN250
     FM270200 31007KT P6SM SKC
     FM271500 32019G27KT P6SM FEW040=



000
FTUS43 KDMX 261924 AAA
TAFDSM
TAF AMD
KDSM 261924Z 2619/2718 VRB04KT P6SM FEW030 SCT100 BKN250
     FM270200 31007KT P6SM SKC
     FM271500 32019G27KT P6SM FEW040=



000
FTUS43 KDMX 261917 AAA
TAFMCW
TAF AMD
KMCW 261917Z 2619/2718 33010KT P6SM SCT015 BKN250
     FM270000 24006KT P6SM SCT100
     FM270600 30011KT P6SM SKC
     FM271500 31018G28KT P6SM FEW040=



000
FTUS43 KDMX 261917 AAA
TAFMCW
TAF AMD
KMCW 261917Z 2619/2718 33010KT P6SM SCT015 BKN250
     FM270000 24006KT P6SM SCT100
     FM270600 30011KT P6SM SKC
     FM271500 31018G28KT P6SM FEW040=



000
FTUS43 KDMX 261819 AAA
TAFFOD
TAF AMD
KFOD 261819Z 2618/2718 VRB05KT P6SM OVC019
     FM261900 VRB05KT P6SM VCSH OVC020
     FM270000 VRB05KT P6SM SKC=



000
FTUS43 KDMX 261819 AAA
TAFFOD
TAF AMD
KFOD 261819Z 2618/2718 VRB05KT P6SM OVC019
     FM261900 VRB05KT P6SM VCSH OVC020
     FM270000 VRB05KT P6SM SKC=



000
FTUS43 KDMX 261733
TAFMCW
TAF
KMCW 261733Z 2618/2718 25005KT P6SM VCSH OVC020
     FM261900 26006KT 5SM TSRA OVC030CB
     FM262100 26006KT P6SM SKC=



000
FTUS43 KDMX 261733
TAFOTM
TAF
KOTM 261733Z 2618/2718 07006KT P6SM OVC025
     FM262300 07006KT P6SM VCTS OVC025CB
     FM270200 VRB05KT P6SM OVC030
     FM271000 30007KT P6SM SKC=



000
FTUS43 KDMX 261733
TAFALO
TAF
KALO 261733Z 2618/2718 VRB05KT P6SM BKN030
     FM262300 VRB05KT P6SM SCT100
     FM270200 28007KT P6SM SKC=



000
FTUS43 KDMX 261733
TAFFOD
TAF
KFOD 261733Z 2618/2718 VRB05KT P6SM OVC025
     FM261900 VRB05KT P6SM VCSH OVC020
     FM270000 VRB05KT P6SM SKC=



000
FTUS43 KDMX 261733
TAFDSM
TAF
KDSM 261733Z 2618/2718 09009KT P6SM SCT060 BKN150
     FM261900 10006KT P6SM OVC025
     FM270200 31007KT P6SM SKC=



000
FTUS43 KDMX 261733
TAFFOD
TAF
KFOD 261733Z 2618/2718 VRB05KT P6SM OVC025
     FM261900 VRB05KT P6SM VCSH OVC020
     FM270000 VRB05KT P6SM SKC=



000
FTUS43 KDMX 261733
TAFALO
TAF
KALO 261733Z 2618/2718 VRB05KT P6SM BKN030
     FM262300 VRB05KT P6SM SCT100
     FM270200 28007KT P6SM SKC=



000
FTUS43 KDMX 261733
TAFDSM
TAF
KDSM 261733Z 2618/2718 09009KT P6SM SCT060 BKN150
     FM261900 10006KT P6SM OVC025
     FM270200 31007KT P6SM SKC=



000
FTUS43 KDMX 261733
TAFOTM
TAF
KOTM 261733Z 2618/2718 07006KT P6SM OVC025
     FM262300 07006KT P6SM VCTS OVC025CB
     FM270200 VRB05KT P6SM OVC030
     FM271000 30007KT P6SM SKC=



000
FTUS43 KDMX 261733
TAFMCW
TAF
KMCW 261733Z 2618/2718 25005KT P6SM VCSH OVC020
     FM261900 26006KT 5SM TSRA OVC030CB
     FM262100 26006KT P6SM SKC=



000
FTUS43 KDMX 261720
TAFFOD
TAF
KFOD 261720Z 2618/2718 06005KT P6SM BKN025 BKN090
     FM262000 VRB05KT P6SM SCT100
     FM262300 30004KT P6SM SKC=



000
FTUS43 KDMX 261720
TAFFOD
TAF
KFOD 261720Z 2618/2718 06005KT P6SM BKN025 BKN090
     FM262000 VRB05KT P6SM SCT100
     FM262300 30004KT P6SM SKC=



000
FTUS43 KDMX 261627 AAF
TAFFOD
TAF AMD
KFOD 261627Z 2616/2712 06005KT P6SM BKN025 BKN090
     FM262000 VRB05KT P6SM SCT100
     FM262300 30004KT P6SM SKC=



000
FTUS43 KDMX 261627 AAF
TAFFOD
TAF AMD
KFOD 261627Z 2616/2712 06005KT P6SM BKN025 BKN090
     FM262000 VRB05KT P6SM SCT100
     FM262300 30004KT P6SM SKC=



000
FTUS43 KDMX 261626 AAE
TAFFOD
TAF AMD
KFOD 261626Z 2616/2712 06005KT P6SM BKN030 BKN090
     FM262000 VRB05KT P6SM SCT100
     FM262300 30004KT P6SM SKC=



000
FTUS43 KDMX 261626 AAE
TAFFOD
TAF AMD
KFOD 261626Z 2616/2712 06005KT P6SM BKN030 BKN090
     FM262000 VRB05KT P6SM SCT100
     FM262300 30004KT P6SM SKC=



000
FTUS43 KDMX 261303 AAA
TAFMCW
TAF AMD
KMCW 261303Z 2613/2712 VRB03KT 1/4SM FG VV001
     FM261400 VRB03KT 2SM BR BKN002
     FM261500 12008KT P6SM VCSH BKN035
     FM261600 26005KT P6SM VCTS BKN060CB
     FM261900 27006KT P6SM SCT030 SCT100
     FM270400 30011G15KT P6SM SKC=



000
FTUS43 KDMX 261303 AAA
TAFMCW
TAF AMD
KMCW 261303Z 2613/2712 VRB03KT 1/4SM FG VV001
     FM261400 VRB03KT 2SM BR BKN002
     FM261500 12008KT P6SM VCSH BKN035
     FM261600 26005KT P6SM VCTS BKN060CB
     FM261900 27006KT P6SM SCT030 SCT100
     FM270400 30011G15KT P6SM SKC=



000
FTUS43 KDMX 261218 AAD
TAFFOD
TAF AMD
KFOD 261218Z 2612/2712 33004KT 2SM BR SCT002
     FM261300 06005KT P6SM VCSH SCT002 BKN030 BKN120
     FM262000 VRB05KT P6SM SCT100
     FM262300 30004KT P6SM SKC=



000
FTUS43 KDMX 261205 AAA
TAFOTM
TAF AMD
KOTM 261205Z 2612/2712 VRB05KT P6SM SCT025
     FM262100 12007KT P6SM VCTS SCT040CB BKN100
      TEMPO 2622/2701 3SM TSRA BKN025CB
     FM270600 34007KT P6SM SCT100=



000
FTUS43 KDMX 261204 AAC
TAFFOD
TAF AMD
KFOD 261204Z 2612/2712 33004KT 1 1/2SM BR OVC002
     FM261300 06005KT P6SM VCSH SCT002 BKN030 BKN120
     FM262000 VRB05KT P6SM SCT100
     FM262300 30004KT P6SM SKC=



000
FTUS43 KDMX 261204 AAC
TAFFOD
TAF AMD
KFOD 261204Z 2612/2712 33004KT 1 1/2SM BR OVC002
     FM261300 06005KT P6SM VCSH SCT002 BKN030 BKN120
     FM262000 VRB05KT P6SM SCT100
     FM262300 30004KT P6SM SKC=



000
FTUS43 KDMX 261141 AAB
TAFFOD
TAF AMD
KFOD 261141Z 2612/2712 VRB02KT 1/4SM FG OVC002
     FM261300 06005KT P6SM VCSH BKN030 BKN120
     FM262000 VRB05KT P6SM SCT100
     FM262300 30004KT P6SM SKC=



000
FTUS43 KDMX 261122 AAA
TAFFOD
TAF AMD
KFOD 261122Z 2611/2712 VRB02KT 3/4SM BR OVC002
     FM261300 06005KT P6SM VCSH BKN030 BKN120
     FM262000 VRB05KT P6SM SCT100
     FM262300 30004KT P6SM SKC=



000
FTUS43 KDMX 261122 AAA
TAFFOD
TAF AMD
KFOD 261122Z 2611/2712 VRB02KT 3/4SM BR OVC002
     FM261300 06005KT P6SM VCSH BKN030 BKN120
     FM262000 VRB05KT P6SM SCT100
     FM262300 30004KT P6SM SKC=



000
FTUS43 KDMX 261120
TAFFOD
TAF
KFOD 261120Z 2612/2712 VRB02KT 2SM BR SCT005
     FM261500 06005KT P6SM VCSH BKN030 BKN120
     FM262000 VRB05KT P6SM SCT100
     FM262300 30004KT P6SM SKC=



000
FTUS43 KDMX 261120
TAFOTM
TAF
KOTM 261120Z 2612/2712 09005KT P6SM BKN025
     FM262100 12007KT P6SM VCTS SCT040CB BKN100
      TEMPO 2622/2701 3SM TSRA BKN025CB
     FM270600 34007KT P6SM SCT100=



000
FTUS43 KDMX 261120
TAFALO
TAF
KALO 261120Z 2612/2712 05005KT P6SM BKN035
     FM261400 VRB05KT P6SM BKN100
     FM262300 VRB04KT P6SM SCT100
     FM270500 31007KT P6SM SKC=



000
FTUS43 KDMX 261120
TAFDSM
TAF
KDSM 261120Z 2612/2712 06009KT P6SM VCSH SCT060 SCT250
     FM262000 10006KT P6SM VCTS SCT025CB BKN160
     FM270200 33007KT P6SM BKN035 BKN100
     FM270500 31007KT P6SM SCT035 SCT100=



000
FTUS43 KDMX 261120
TAFMCW
TAF
KMCW 261120Z 2612/2712 VRB03KT 1/4SM FG VV001
     FM261300 VRB03KT 2SM BR BKN002
     FM261400 12008KT P6SM VCSH BKN035
     FM261600 26005KT P6SM VCTS BKN060CB
     FM261900 27006KT P6SM SCT030 SCT100
     FM270400 30011G15KT P6SM SKC=



000
FTUS43 KDMX 261120
TAFALO
TAF
KALO 261120Z 2612/2712 05005KT P6SM BKN035
     FM261400 VRB05KT P6SM BKN100
     FM262300 VRB04KT P6SM SCT100
     FM270500 31007KT P6SM SKC=



000
FTUS43 KDMX 261120
TAFDSM
TAF
KDSM 261120Z 2612/2712 06009KT P6SM VCSH SCT060 SCT250
     FM262000 10006KT P6SM VCTS SCT025CB BKN160
     FM270200 33007KT P6SM BKN035 BKN100
     FM270500 31007KT P6SM SCT035 SCT100=



000
FTUS43 KDMX 261120
TAFOTM
TAF
KOTM 261120Z 2612/2712 09005KT P6SM BKN025
     FM262100 12007KT P6SM VCTS SCT040CB BKN100
      TEMPO 2622/2701 3SM TSRA BKN025CB
     FM270600 34007KT P6SM SCT100=



000
FTUS43 KDMX 261023 AAC
TAFFOD
TAF AMD
KFOD 261023Z 2610/2706 VRB03KT 3SM BR SCT008
     FM261100 VRB02KT 1SM BR BKN010
     FM261500 06005KT P6SM BKN030 BKN120
     FM262000 VRB05KT P6SM SCT100
     FM270200 30004KT P6SM SKC=



000
FTUS43 KDMX 261001 AAA
TAFDSM
TAF AMD
KDSM 261001Z 2610/2706 11006KT P6SM SCT050 SCT150
     FM261100 VRB04KT 6SM BR BKN050 OVC160
     FM261200 06009KT P6SM OVC060
     FM262100 10006KT P6SM VCTS SCT050CB BKN100
     FM270200 35007KT P6SM SCT100=



000
FTUS43 KDMX 261001 AAA
TAFDSM
TAF AMD
KDSM 261001Z 2610/2706 11006KT P6SM SCT050 SCT150
     FM261100 VRB04KT 6SM BR BKN050 OVC160
     FM261200 06009KT P6SM OVC060
     FM262100 10006KT P6SM VCTS SCT050CB BKN100
     FM270200 35007KT P6SM SCT100=



000
FTUS43 KDMX 261000 AAE
TAFMCW
TAF AMD
KMCW 261000Z 2610/2706 VRB03KT 1/4SM FG OVC001
     FM261300 VRB03KT 2SM BR BKN002
     FM261400 12008KT P6SM BKN030
     FM261600 26005KT P6SM BKN060
     FM262200 29006KT P6SM SCT030 SCT100
     FM270400 30010KT P6SM SKC=



000
FTUS43 KDMX 261000 AAE
TAFMCW
TAF AMD
KMCW 261000Z 2610/2706 VRB03KT 1/4SM FG OVC001
     FM261300 VRB03KT 2SM BR BKN002
     FM261400 12008KT P6SM BKN030
     FM261600 26005KT P6SM BKN060
     FM262200 29006KT P6SM SCT030 SCT100
     FM270400 30010KT P6SM SKC=



000
FTUS43 KDMX 260915 AAD
TAFMCW
TAF AMD
KMCW 260915Z 2609/2706 VRB02KT 1/4SM FG OVC002
     FM261000 VRB03KT 2SM BR BKN002
     FM261300 12008KT P6SM BKN030
     FM261600 26005KT P6SM BKN060
     FM262200 29006KT P6SM SCT030 SCT100
     FM270400 30010KT P6SM SKC=



000
FTUS43 KDMX 260915 AAD
TAFMCW
TAF AMD
KMCW 260915Z 2609/2706 VRB02KT 1/4SM FG OVC002
     FM261000 VRB03KT 2SM BR BKN002
     FM261300 12008KT P6SM BKN030
     FM261600 26005KT P6SM BKN060
     FM262200 29006KT P6SM SCT030 SCT100
     FM270400 30010KT P6SM SKC=



000
FTUS43 KDMX 260904 AAA
TAFOTM
TAF AMD
KOTM 260904Z 2609/2706 12006KT P6SM BKN070
     FM261100 VRB03KT 6SM BR SCT010 BKN030
     FM261200 09005KT P6SM SCT030 BKN060
     FM262000 12007KT P6SM VCTS SCT040CB BKN100
      TEMPO 2622/2701 3SM TSRA BKN025CB
     FM270500 34005KT P6SM SCT100=



000
FTUS43 KDMX 260904 AAA
TAFOTM
TAF AMD
KOTM 260904Z 2609/2706 12006KT P6SM BKN070
     FM261100 VRB03KT 6SM BR SCT010 BKN030
     FM261200 09005KT P6SM SCT030 BKN060
     FM262000 12007KT P6SM VCTS SCT040CB BKN100
      TEMPO 2622/2701 3SM TSRA BKN025CB
     FM270500 34005KT P6SM SCT100=



000
FTUS43 KDMX 260903 AAB
TAFFOD
TAF AMD
KFOD 260903Z 2609/2706 VRB03KT 1 1/2SM BR SCT008
     FM261100 VRB02KT 1SM BR BKN010
     FM261500 06005KT P6SM BKN030 BKN120
     FM262000 VRB05KT P6SM SCT100
     FM270200 30004KT P6SM SKC=



000
FTUS43 KDMX 260903 AAB
TAFFOD
TAF AMD
KFOD 260903Z 2609/2706 VRB03KT 1 1/2SM BR SCT008
     FM261100 VRB02KT 1SM BR BKN010
     FM261500 06005KT P6SM BKN030 BKN120
     FM262000 VRB05KT P6SM SCT100
     FM270200 30004KT P6SM SKC=



000
FTUS43 KDMX 260846 AAC
TAFMCW
TAF AMD
KMCW 260846Z 2609/2706 VRB02KT 3SM BR BKN002
     FM261000 VRB03KT 2SM BR BKN002
     FM261300 12008KT P6SM BKN030
     FM261600 26005KT P6SM BKN060
     FM262200 29006KT P6SM SCT030 SCT100
     FM270400 30010KT P6SM SKC=



000
FTUS43 KDMX 260846 AAC
TAFMCW
TAF AMD
KMCW 260846Z 2609/2706 VRB02KT 3SM BR BKN002
     FM261000 VRB03KT 2SM BR BKN002
     FM261300 12008KT P6SM BKN030
     FM261600 26005KT P6SM BKN060
     FM262200 29006KT P6SM SCT030 SCT100
     FM270400 30010KT P6SM SKC=



000
FTUS43 KDMX 260733 AAA
TAFALO
TAF AMD
KALO 260733Z 2608/2706 11007KT P6SM SCT025 OVC040
     FM260900 VRB03KT 5SM BR BKN025
     FM261100 05005KT P6SM BKN030
     FM261400 VRB05KT P6SM BKN100
     FM262300 VRB04KT P6SM SCT100
     FM270500 31007KT P6SM SKC=



000
FTUS43 KDMX 260733 AAA
TAFALO
TAF AMD
KALO 260733Z 2608/2706 11007KT P6SM SCT025 OVC040
     FM260900 VRB03KT 5SM BR BKN025
     FM261100 05005KT P6SM BKN030
     FM261400 VRB05KT P6SM BKN100
     FM262300 VRB04KT P6SM SCT100
     FM270500 31007KT P6SM SKC=



000
FTUS43 KDMX 260659 AAB
TAFMCW
TAF AMD
KMCW 260659Z 2607/2706 VRB02KT 5SM BR BKN025 OVC045
     FM261000 VRB03KT 2SM BR BKN010
     FM261300 12008KT P6SM BKN030
     FM261600 26005KT P6SM BKN060
     FM262200 29006KT P6SM SCT030 SCT100
     FM270400 30010KT P6SM SKC=



000
FTUS43 KDMX 260659 AAB
TAFMCW
TAF AMD
KMCW 260659Z 2607/2706 VRB02KT 5SM BR BKN025 OVC045
     FM261000 VRB03KT 2SM BR BKN010
     FM261300 12008KT P6SM BKN030
     FM261600 26005KT P6SM BKN060
     FM262200 29006KT P6SM SCT030 SCT100
     FM270400 30010KT P6SM SKC=



000
FTUS43 KDMX 260623 AAA
TAFMCW
TAF AMD
KMCW 260623Z 2606/2706 VRB02KT P6SM SCT028 OVC045
     FM261000 VRB03KT 2SM BR BKN010
     FM261300 12008KT P6SM VCSH BKN030
     FM261600 26005KT P6SM BKN060
     FM262200 29006KT P6SM SCT030 SCT100
     FM270400 30010KT P6SM SKC=



000
FTUS43 KDMX 260623 AAA
TAFMCW
TAF AMD
KMCW 260623Z 2606/2706 VRB02KT P6SM SCT028 OVC045
     FM261000 VRB03KT 2SM BR BKN010
     FM261300 12008KT P6SM VCSH BKN030
     FM261600 26005KT P6SM BKN060
     FM262200 29006KT P6SM SCT030 SCT100
     FM270400 30010KT P6SM SKC=



000
FTUS43 KDMX 260615 AAA
TAFFOD
TAF AMD
KFOD 260615Z 2606/2706 VRB03KT P6SM OVC030
     FM261100 VRB02KT 2SM BR VCTS BKN010CB
     FM261500 06005KT P6SM BKN030 BKN120
     FM262000 VRB05KT P6SM SCT100
     FM270200 30004KT P6SM SKC=



000
FTUS43 KDMX 260615 AAA
TAFFOD
TAF AMD
KFOD 260615Z 2606/2706 VRB03KT P6SM OVC030
     FM261100 VRB02KT 2SM BR VCTS BKN010CB
     FM261500 06005KT P6SM BKN030 BKN120
     FM262000 VRB05KT P6SM SCT100
     FM270200 30004KT P6SM SKC=



000
FTUS43 KDMX 260520
TAFOTM
TAF
KOTM 260520Z 2606/2706 12006KT P6SM BKN070
     FM260900 VRB03KT 3SM BR SCT010 BKN030
     FM261200 09005KT P6SM SCT030 BKN060
     FM262000 12007KT P6SM VCTS SCT040CB BKN100
      TEMPO 2622/2701 3SM TSRA BKN030CB
     FM270500 34005KT P6SM SCT100=



000
FTUS43 KDMX 260520
TAFDSM
TAF
KDSM 260520Z 2606/2706 11006KT P6SM SCT050 SCT150
     FM261000 VRB04KT 5SM BR BKN030 OVC100
     FM261200 06009KT P6SM OVC060
     FM262100 10006KT P6SM VCTS SCT050CB BKN100
     FM270200 35007KT P6SM SCT100=



000
FTUS43 KDMX 260520
TAFALO
TAF
KALO 260520Z 2606/2706 14007KT P6SM OVC020
     FM260900 VRB03KT 2SM BR BKN015
     FM261100 05005KT P6SM BKN030
     FM261400 VRB05KT P6SM BKN100
     FM262300 VRB04KT P6SM SCT100
     FM270500 31007KT P6SM SKC=



000
FTUS43 KDMX 260520
TAFMCW
TAF
KMCW 260520Z 2606/2706 VRB02KT P6SM OVC025
     FM261000 VRB03KT 2SM BR BKN010
     FM261300 12008KT P6SM VCSH BKN030
     FM261600 26005KT P6SM BKN060
     FM262200 29006KT P6SM SCT030 SCT100
     FM270400 30010KT P6SM SKC=



000
FTUS43 KDMX 260520
TAFFOD
TAF
KFOD 260520Z 2606/2706 VRB03KT P6SM OVC040
     FM261100 VRB02KT 2SM BR VCTS BKN010CB
     FM261500 06005KT P6SM BKN030 BKN120
     FM262000 VRB05KT P6SM SCT100
     FM270200 30004KT P6SM SKC=



000
FTUS43 KDMX 260520
TAFDSM
TAF
KDSM 260520Z 2606/2706 11006KT P6SM SCT050 SCT150
     FM261000 VRB04KT 5SM BR BKN030 OVC100
     FM261200 06009KT P6SM OVC060
     FM262100 10006KT P6SM VCTS SCT050CB BKN100
     FM270200 35007KT P6SM SCT100=



000
FTUS43 KDMX 260520
TAFFOD
TAF
KFOD 260520Z 2606/2706 VRB03KT P6SM OVC040
     FM261100 VRB02KT 2SM BR VCTS BKN010CB
     FM261500 06005KT P6SM BKN030 BKN120
     FM262000 VRB05KT P6SM SCT100
     FM270200 30004KT P6SM SKC=



000
FTUS43 KDMX 260520
TAFMCW
TAF
KMCW 260520Z 2606/2706 VRB02KT P6SM OVC025
     FM261000 VRB03KT 2SM BR BKN010
     FM261300 12008KT P6SM VCSH BKN030
     FM261600 26005KT P6SM BKN060
     FM262200 29006KT P6SM SCT030 SCT100
     FM270400 30010KT P6SM SKC=



000
FTUS43 KDMX 260520
TAFOTM
TAF
KOTM 260520Z 2606/2706 12006KT P6SM BKN070
     FM260900 VRB03KT 3SM BR SCT010 BKN030
     FM261200 09005KT P6SM SCT030 BKN060
     FM262000 12007KT P6SM VCTS SCT040CB BKN100
      TEMPO 2622/2701 3SM TSRA BKN030CB
     FM270500 34005KT P6SM SCT100=



000
FTUS43 KDMX 260520
TAFALO
TAF
KALO 260520Z 2606/2706 14007KT P6SM OVC020
     FM260900 VRB03KT 2SM BR BKN015
     FM261100 05005KT P6SM BKN030
     FM261400 VRB05KT P6SM BKN100
     FM262300 VRB04KT P6SM SCT100
     FM270500 31007KT P6SM SKC=



000
FTUS43 KDMX 260455 AAA
TAFMCW
TAF AMD
KMCW 260455Z 2605/2624 19005KT P6SM OVC028
     FM260700 33006KT 3SM BR SCT010 BKN020
     FM261000 VRB03KT 2SM BR BKN010
     FM261300 05008KT P6SM BKN030
     FM262000 28006KT P6SM SCT030 SCT100=



000
FTUS43 KDMX 252324
TAFFOD
TAF
KFOD 252324Z 2600/2624 21005KT P6SM BKN025
     FM260300 08004KT P6SM SCT025
     FM260700 09003KT 4SM BR SCT010 BKN020
     FM261100 VRB02KT 2SM BR BKN010
     FM261500 06005KT P6SM BKN030 BKN120
     FM262000 VRB05KT P6SM SCT100=



000
FTUS43 KDMX 252324
TAFMCW
TAF
KMCW 252324Z 2600/2624 19005KT P6SM BKN035
     FM260700 33006KT 3SM BR SCT010 BKN020
     FM261000 VRB03KT 2SM BR BKN010
     FM261300 05008KT P6SM BKN030
     FM262000 28006KT P6SM SCT030 SCT100=



000
FTUS43 KDMX 252324
TAFDSM
TAF
KDSM 252324Z 2600/2624 14006KT P6SM SCT030 SCT150
     FM261000 VRB04KT 5SM BR BKN030 OVC100
     FM261200 06009KT P6SM SCT025 OVC100
     FM262000 12006KT P6SM SCT100=



000
FTUS43 KDMX 252324
TAFOTM
TAF
KOTM 252324Z 2600/2624 18006KT P6SM FEW025
     FM260900 VRB03KT 3SM BR SCT010 BKN030
     FM261200 09005KT P6SM SCT030 BKN060
     FM262000 12007KT P6SM SCT100=



000
FTUS43 KDMX 252324
TAFALO
TAF
KALO 252324Z 2600/2624 17007KT P6SM BKN029
     FM260600 17003KT 4SM BR SCT050
     FM260900 VRB03KT 2SM BR BKN010
     FM261100 05005KT P6SM BKN030
     FM261400 VRB05KT P6SM BKN100
     FM262100 25006KT P6SM SCT100=



000
FTUS43 KDMX 252324
TAFOTM
TAF
KOTM 252324Z 2600/2624 18006KT P6SM FEW025
     FM260900 VRB03KT 3SM BR SCT010 BKN030
     FM261200 09005KT P6SM SCT030 BKN060
     FM262000 12007KT P6SM SCT100=



000
FTUS43 KDMX 252324
TAFMCW
TAF
KMCW 252324Z 2600/2624 19005KT P6SM BKN035
     FM260700 33006KT 3SM BR SCT010 BKN020
     FM261000 VRB03KT 2SM BR BKN010
     FM261300 05008KT P6SM BKN030
     FM262000 28006KT P6SM SCT030 SCT100=



000
FTUS43 KDMX 252324
TAFDSM
TAF
KDSM 252324Z 2600/2624 14006KT P6SM SCT030 SCT150
     FM261000 VRB04KT 5SM BR BKN030 OVC100
     FM261200 06009KT P6SM SCT025 OVC100
     FM262000 12006KT P6SM SCT100=



000
FTUS43 KDMX 252324
TAFALO
TAF
KALO 252324Z 2600/2624 17007KT P6SM BKN029
     FM260600 17003KT 4SM BR SCT050
     FM260900 VRB03KT 2SM BR BKN010
     FM261100 05005KT P6SM BKN030
     FM261400 VRB05KT P6SM BKN100
     FM262100 25006KT P6SM SCT100=



000
FTUS43 KDMX 252324
TAFFOD
TAF
KFOD 252324Z 2600/2624 21005KT P6SM BKN025
     FM260300 08004KT P6SM SCT025
     FM260700 09003KT 4SM BR SCT010 BKN020
     FM261100 VRB02KT 2SM BR BKN010
     FM261500 06005KT P6SM BKN030 BKN120
     FM262000 VRB05KT P6SM SCT100=



    US Dept of Commerce
    National Oceanic and Atmospheric Administration
    National Weather Service
    1325 East West Highway
    Silver Spring, MD 20910
    Page Author: NWS Internet Services Team
Disclaimer
Information Quality
Credits
Glossary
Privacy Policy
Freedom of Information Act (FOIA)
About Us
Career Opportunities